»·PEaware :: N3539W KRNM-KONT

N3539W :: KRNM-KONT

FLIGHT INFORMATION

Flight Status: Arrived
Operator: Privately registered:
United States
More flights under this callsign
Pilot: Joerg P. (23850)
Aircraft: PIPER PA-32 SARATOGA
(PA32)
More flights by this aircraft type
Origin: KRNM Ramona
United States
Destination: KONT Ontario Intl
United States
More flights between these airports :: More routes between these airports
Route: +ROBNN V208 OCN V23 DANAH V363 POXKU V8 PDZ
File this flight plan on PilotEdge
Remarks: TEC SANP19
Altitude:
(Current/Filed)
6,000ft
Speed:
(Current/Filed)
130kts
Departed: 30-Sep-20 06:11 PM
Arrived: 30-Sep-20 07:03 PM
Distance/Time
Traveled:
70nm/0:51
Distance/Time
To Go:
Arrived

Flight Plot

Page will automatically refresh every two minutes.


Map Options




Map Legend


Flown Route
Filed Route
Departure Airport
Arrival Airport
Navaid (VOR, NDB)
Fix

Horizontal Profiles

Position Reports

Time Latitude Longitude Heading Altitude Ground
Speed
30-Sep-20 17:54 33.037218 -116.910141 188 1395ft 0kts
30-Sep-20 17:55 33.037218 -116.910141 188 1395ft 0kts
30-Sep-20 17:56 33.037218 -116.910141 188 1395ft 0kts
30-Sep-20 17:57 33.037218 -116.910141 188 1395ft 0kts
30-Sep-20 17:58 33.037218 -116.910141 188 1395ft 0kts
30-Sep-20 17:59 33.037218 -116.910141 188 1395ft 0kts
30-Sep-20 18:00 33.037218 -116.910141 188 1395ft 0kts
30-Sep-20 18:01 33.037218 -116.910141 188 1395ft 0kts
30-Sep-20 18:02 33.037218 -116.910141 188 1395ft 0kts
30-Sep-20 18:03 33.037218 -116.910141 188 1395ft 0kts
30-Sep-20 18:04 33.037218 -116.910141 188 1395ft 0kts
30-Sep-20 18:05 33.037218 -116.910141 188 1395ft 0kts
30-Sep-20 18:06 33.037218 -116.910141 188 1395ft 0kts
30-Sep-20 18:07 33.037159 -116.910147 126 1395ft 13kts
30-Sep-20 18:08 33.037523 -116.907398 9 1397ft 0kts
30-Sep-20 18:09 33.037523 -116.907398 9 1397ft 0kts
30-Sep-20 18:10 33.040183 -116.927649 269 1805ft 92kts
30-Sep-20 18:11 33.041612 -116.958940 265 2557ft 99kts
30-Sep-20 18:12 33.044046 -116.991313 281 3295ft 97kts
30-Sep-20 18:13 33.045658 -117.022632 271 4061ft 95kts
30-Sep-20 18:14 33.053017 -117.052763 295 4760ft 96kts
30-Sep-20 18:15 33.067577 -117.079202 302 5536ft 94kts
30-Sep-20 18:16 33.081012 -117.107897 292 6069ft 111kts
30-Sep-20 18:17 33.094931 -117.144127 301 6105ft 132kts
30-Sep-20 18:18 33.113518 -117.183293 297 5955ft 135kts
30-Sep-20 18:19 33.132789 -117.220577 300 6011ft 130kts
30-Sep-20 18:20 33.155955 -117.254257 309 6000ft 132kts
30-Sep-20 18:21 33.180578 -117.286269 313 6029ft 131kts
30-Sep-20 18:22 33.188584 -117.328459 284 6024ft 132kts
30-Sep-20 18:23 33.214207 -117.359853 319 5999ft 131kts
30-Sep-20 18:24 33.234521 -117.395963 295 5933ft 133kts
30-Sep-20 18:25 33.254436 -117.431613 327 5983ft 131kts
30-Sep-20 18:26 33.280480 -117.461625 310 6038ft 127kts
30-Sep-20 18:27 33.305584 -117.492324 309 6051ft 132kts
30-Sep-20 18:28 33.331549 -117.523463 316 6040ft 133kts
30-Sep-20 18:29 33.360789 -117.550712 311 5989ft 134kts
30-Sep-20 18:30 33.385452 -117.583519 312 6011ft 131kts
30-Sep-20 18:31 33.414139 -117.610762 325 5976ft 134kts
30-Sep-20 18:32 33.438606 -117.642742 313 6058ft 130kts
30-Sep-20 18:33 33.466964 -117.670397 326 6104ft 130kts
30-Sep-20 18:34 33.495809 -117.696004 321 6174ft 130kts
30-Sep-20 18:35 33.531438 -117.708187 330 6145ft 134kts
30-Sep-20 18:36 33.567752 -117.719281 353 6109ft 137kts
30-Sep-20 18:37 33.605781 -117.722030 351 6088ft 137kts
30-Sep-20 18:38 33.643315 -117.726882 348 6101ft 135kts
30-Sep-20 18:39 33.680735 -117.732070 330 6053ft 136kts
30-Sep-20 18:40 33.714598 -117.750565 334 6083ft 134kts
30-Sep-20 18:41 33.750137 -117.764416 340 6100ft 134kts
30-Sep-20 18:42 33.784279 -117.781885 344 6104ft 134kts
30-Sep-20 18:43 33.822011 -117.783834 355 6069ft 138kts
30-Sep-20 18:44 33.858560 -117.779176 49 6059ft 147kts
30-Sep-20 18:45 33.866895 -117.730381 68 6061ft 150kts
30-Sep-20 18:46 33.881148 -117.683870 59 6074ft 148kts
30-Sep-20 18:47 33.892078 -117.636019 74 6107ft 149kts
30-Sep-20 18:48 33.903304 -117.587883 59 6092ft 147kts
30-Sep-20 18:49 33.920661 -117.543863 69 6061ft 150kts
30-Sep-20 18:50 33.933392 -117.494584 67 5722ft 162kts
30-Sep-20 18:51 33.945626 -117.442895 68 5026ft 161kts
30-Sep-20 18:52 33.960001 -117.392208 67 4376ft 158kts
30-Sep-20 18:53 33.973917 -117.344035 58 4384ft 149kts
30-Sep-20 18:54 34.008536 -117.346416 333 4037ft 143kts
30-Sep-20 18:55 34.042611 -117.367566 311 3460ft 137kts
30-Sep-20 18:56 34.050729 -117.409410 259 3250ft 140kts
30-Sep-20 18:57 34.047821 -117.454527 287 2812ft 118kts
30-Sep-20 18:58 34.053513 -117.486153 270 2300ft 89kts
30-Sep-20 18:59 34.053592 -117.516961 282 1854ft 93kts
30-Sep-20 19:00 34.056534 -117.546501 267 1597ft 94kts
30-Sep-20 19:01 34.055213 -117.576649 262 1069ft 81kts
30-Sep-20 19:02 34.054097 -117.589706 179 920ft 0kts
30-Sep-20 19:03 34.053849 -117.593176 270 919ft 22kts
30-Sep-20 19:04 34.053840 -117.600802 269 921ft 23kts
30-Sep-20 19:05 34.053793 -117.608963 264 925ft 24kts

Navigation Log

Ident Type
Flight plan parsing failed, navigation log unavailable